CCGS Cape Naden — CFN5482 — position and weather

sailwx.info

Track history (hours):
 
Tides and Currents Weather Stations Pressure Air Temp Water Temp Dewpoint Dewpoint Depression Visibility Wind Speed Wind Dir Waves Ship Positions

CCGS Cape Naden

Last reported at 2017-Jan-17 20:33 UTC. Time now 2017-Jan-17 21:26 UTC.
Position N 48°51' W 123°30'.

Length 15 m; draft 0.8 m.

Type: SAR. MMSI: 316017162.

Date/timePositionNaut miles runAvg speedWind from/ knotsBaromVisibWave heightAir tempDewpointWater temp
2017-Jan-17 20:33N 48°51' W 123°30'0 0.0
2017-Jan-17 19:33N 48°51' W 123°30'0 0.0
2017-Jan-17 18:33N 48°51' W 123°30'0 0.0
2017-Jan-17 17:33N 48°51' W 123°30'0 0.0
2017-Jan-17 16:34N 48°51' W 123°30'0 0.0
2017-Jan-17 15:33N 48°51' W 123°30'0 0.0
2017-Jan-17 14:33N 48°51' W 123°30'0 0.0
2017-Jan-17 13:33N 48°51' W 123°30'0 0.0
2017-Jan-17 12:34N 48°51' W 123°30'0 0.0
2017-Jan-17 11:33N 48°51' W 123°30'0 0.0
2017-Jan-17 10:33N 48°51' W 123°30'0 0.0
2017-Jan-17 09:34N 48°51' W 123°30'0 0.0
2017-Jan-17 08:34N 48°51' W 123°30'0 0.0
2017-Jan-17 07:33N 48°51' W 123°30'0 0.0
2017-Jan-17 06:33N 48°51' W 123°30'0 0.0
2017-Jan-17 05:34N 48°51' W 123°30'0 0.0
2017-Jan-17 04:33N 48°51' W 123°30'0 0.0
2017-Jan-17 03:33N 48°51' W 123°30'0 0.0
2017-Jan-17 02:33N 48°51' W 123°30'0 0.0
2017-Jan-17 01:34N 48°51' W 123°30'0 0.0
2017-Jan-17 00:33N 48°51' W 123°30'0 0.0
2017-Jan-16 23:33N 48°51' W 123°30'1312.4
2017-Jan-16 22:32N 48°44' W 123°14'2 0.8
2017-Jan-16 20:20N 48°46' W 123°14'1214.6
2017-Jan-16 19:33N 48°51' W 123°30'0 0.1
2017-Jan-16 18:31N 48°51' W 123°30'  
2017-Jan-12 20:11N 48°48' W 123°33'1 1.3
2017-Jan-12 19:33N 48°47' W 123°33'3 2.6
2017-Jan-12 18:33N 48°44' W 123°34'4 3.8
2017-Jan-12 17:34N 48°43' W 123°29'4 0.2
2017-Jan-11 21:14N 48°44' W 123°24'1318.6
2017-Jan-11 20:33N 48°32' W 123°16'3 2.9
2017-Jan-11 19:34N 48°35' W 123°19'  
Track history (hours):
 
Tides and Currents Weather Stations Pressure Air Temp Water Temp Dewpoint Dewpoint Depression Visibility Wind Speed Wind Dir Waves Ship Positions

CCGS Cape Naden

Last reported at 2017-Jan-17 20:33 UTC. Time now 2017-Jan-17 21:26 UTC.
Position N 48°51' W 123°30'.

Length 15 m; draft 0.8 m.

Type: SAR. MMSI: 316017162.

Date/timePositionNaut miles runAvg speedWind from/ knotsBaromVisibWave heightAir tempDewpointWater temp
2017-Jan-17 20:33N 48°51' W 123°30'0 0.0
2017-Jan-17 19:33N 48°51' W 123°30'0 0.0
2017-Jan-17 18:33N 48°51' W 123°30'0 0.0
2017-Jan-17 17:33N 48°51' W 123°30'0 0.0
2017-Jan-17 16:34N 48°51' W 123°30'0 0.0
2017-Jan-17 15:33N 48°51' W 123°30'0 0.0
2017-Jan-17 14:33N 48°51' W 123°30'0 0.0
2017-Jan-17 13:33N 48°51' W 123°30'0 0.0
2017-Jan-17 12:34N 48°51' W 123°30'0 0.0
2017-Jan-17 11:33N 48°51' W 123°30'0 0.0
2017-Jan-17 10:33N 48°51' W 123°30'0 0.0
2017-Jan-17 09:34N 48°51' W 123°30'0 0.0
2017-Jan-17 08:34N 48°51' W 123°30'0 0.0
2017-Jan-17 07:33N 48°51' W 123°30'0 0.0
2017-Jan-17 06:33N 48°51' W 123°30'0 0.0
2017-Jan-17 05:34N 48°51' W 123°30'0 0.0
2017-Jan-17 04:33N 48°51' W 123°30'0 0.0
2017-Jan-17 03:33N 48°51' W 123°30'0 0.0
2017-Jan-17 02:33N 48°51' W 123°30'0 0.0
2017-Jan-17 01:34N 48°51' W 123°30'0 0.0
2017-Jan-17 00:33N 48°51' W 123°30'0 0.0
2017-Jan-16 23:33N 48°51' W 123°30'1312.4
2017-Jan-16 22:32N 48°44' W 123°14'2 0.8
2017-Jan-16 20:20N 48°46' W 123°14'1214.6
2017-Jan-16 19:33N 48°51' W 123°30'0 0.1
2017-Jan-16 18:31N 48°51' W 123°30'  
2017-Jan-12 20:11N 48°48' W 123°33'1 1.3
2017-Jan-12 19:33N 48°47' W 123°33'3 2.6
2017-Jan-12 18:33N 48°44' W 123°34'4 3.8
2017-Jan-12 17:34N 48°43' W 123°29'4 0.2
2017-Jan-11 21:14N 48°44' W 123°24'1318.6
2017-Jan-11 20:33N 48°32' W 123°16'3 2.9
2017-Jan-11 19:34N 48°35' W 123°19'  

Dump ship's entire track history